sensor_id;sensor_type;location;lat;lon;timestamp;pressure;altitude;pressure_sealevel;temperature;humidity
3917;BME280;1973;50.518;7.318;2023-02-12T00:02:24;103132.97;;;5.61;100.00
3917;BME280;1973;50.518;7.318;2023-02-12T00:04:51;103125.50;;;5.63;100.00
3917;BME280;1973;50.518;7.318;2023-02-12T00:07:17;103122.66;;;5.64;100.00
3917;BME280;1973;50.518;7.318;2023-02-12T00:09:44;103120.78;;;5.65;100.00
3917;BME280;1973;50.518;7.318;2023-02-12T00:12:10;103123.25;;;5.68;100.00
3917;BME280;1973;50.518;7.318;2023-02-12T00:14:37;103129.44;;;5.70;100.00
3917;BME280;1973;50.518;7.318;2023-02-12T00:17:03;103123.88;;;5.71;100.00
3917;BME280;1973;50.518;7.318;2023-02-12T00:19:30;103120.16;;;5.72;100.00
3917;BME280;1973;50.518;7.318;2023-02-12T00:21:56;103128.22;;;5.74;100.00
3917;BME280;1973;50.518;7.318;2023-02-12T00:24:23;103124.50;;;5.75;100.00
3917;BME280;1973;50.518;7.318;2023-02-12T00:26:49;103119.03;;;5.75;100.00
3917;BME280;1973;50.518;7.318;2023-02-12T00:29:16;103129.97;;;5.75;100.00
3917;BME280;1973;50.518;7.318;2023-02-12T00:31:42;103130.81;;;5.75;100.00
3917;BME280;1973;50.518;7.318;2023-02-12T00:34:10;103131.69;;;5.76;100.00
3917;BME280;1973;50.518;7.318;2023-02-12T00:36:36;103135.41;;;5.75;100.00
3917;BME280;1973;50.518;7.318;2023-02-12T00:39:03;103128.97;;;5.76;100.00
3917;BME280;1973;50.518;7.318;2023-02-12T00:41:30;103133.41;;;5.77;100.00
3917;BME280;1973;50.518;7.318;2023-02-12T00:43:56;103131.44;;;5.79;100.00
3917;BME280;1973;50.518;7.318;2023-02-12T00:46:23;103123.97;;;5.81;100.00
3917;BME280;1973;50.518;7.318;2023-02-12T00:48:50;103126.69;;;5.81;100.00
3917;BME280;1973;50.518;7.318;2023-02-12T00:51:16;103127.47;;;5.83;100.00
3917;BME280;1973;50.518;7.318;2023-02-12T00:53:43;103121.78;;;5.86;100.00
3917;BME280;1973;50.518;7.318;2023-02-12T00:56:09;103114.28;;;5.88;100.00
3917;BME280;1973;50.518;7.318;2023-02-12T00:58:36;103116.03;;;5.89;100.00
3917;BME280;1973;50.518;7.318;2023-02-12T01:01:02;103122.13;;;5.93;100.00
3917;BME280;1973;50.518;7.318;2023-02-12T01:03:29;103119.13;;;5.96;100.00
3917;BME280;1973;50.518;7.318;2023-02-12T01:05:55;103116.13;;;5.99;100.00
3917;BME280;1973;50.518;7.318;2023-02-12T01:08:23;103124.22;;;6.00;100.00
3917;BME280;1973;50.518;7.318;2023-02-12T01:10:58;103129.41;;;6.03;100.00
3917;BME280;1973;50.518;7.318;2023-02-12T01:13:26;103129.41;;;6.03;100.00
3917;BME280;1973;50.518;7.318;2023-02-12T01:16:07;103124.81;;;6.04;100.00
3917;BME280;1973;50.518;7.318;2023-02-12T01:18:36;103130.44;;;6.02;100.00
3917;BME280;1973;50.518;7.318;2023-02-12T01:21:30;103131.53;;;6.00;100.00
3917;BME280;1973;50.518;7.318;2023-02-12T01:23:57;103140.63;;;6.00;100.00
3917;BME280;1973;50.518;7.318;2023-02-12T01:26:25;103129.69;;;6.00;100.00
3917;BME280;1973;50.518;7.318;2023-02-12T01:28:57;103128.69;;;6.01;100.00
3917;BME280;1973;50.518;7.318;2023-02-12T01:31:27;103118.75;;;6.00;100.00
3917;BME280;1973;50.518;7.318;2023-02-12T01:33:57;103138.63;;;6.02;100.00
3917;BME280;1973;50.518;7.318;2023-02-12T01:36:26;103133.16;;;6.02;100.00
3917;BME280;1973;50.518;7.318;2023-02-12T01:38:53;103123.06;;;6.03;100.00
3917;BME280;1973;50.518;7.318;2023-02-12T01:41:22;103127.44;;;6.05;100.00
3917;BME280;1973;50.518;7.318;2023-02-12T01:44:05;103126.56;;;6.05;100.00
3917;BME280;1973;50.518;7.318;2023-02-12T01:46:32;103130.16;;;6.05;100.00
3917;BME280;1973;50.518;7.318;2023-02-12T01:48:59;103128.44;;;6.04;100.00
3917;BME280;1973;50.518;7.318;2023-02-12T01:51:27;103132.75;;;6.07;100.00
3917;BME280;1973;50.518;7.318;2023-02-12T01:53:57;103117.13;;;6.09;100.00
3917;BME280;1973;50.518;7.318;2023-02-12T01:56:27;103116.25;;;6.08;100.00
3917;BME280;1973;50.518;7.318;2023-02-12T01:58:54;103114.22;;;6.10;100.00
3917;BME280;1973;50.518;7.318;2023-02-12T02:01:28;103119.69;;;6.10;100.00
3917;BME280;1973;50.518;7.318;2023-02-12T02:04:01;103121.44;;;6.11;100.00
3917;BME280;1973;50.518;7.318;2023-02-12T02:06:50;103115.97;;;6.11;100.00
3917;BME280;1973;50.518;7.318;2023-02-12T02:09:19;103121.44;;;6.11;100.00
3917;BME280;1973;50.518;7.318;2023-02-12T02:11:45;103118.81;;;6.10;100.00
3917;BME280;1973;50.518;7.318;2023-02-12T02:14:31;103118.97;;;6.08;100.00
3917;BME280;1973;50.518;7.318;2023-02-12T02:31:19;103113.25;;;6.11;100.00
3917;BME280;1973;50.518;7.318;2023-02-12T02:33:54;103110.25;;;6.14;100.00
3917;BME280;1973;50.518;7.318;2023-02-12T02:39:36;103102.78;;;6.16;100.00
3917;BME280;1973;50.518;7.318;2023-02-12T02:42:17;103109.97;;;6.17;100.00
3917;BME280;1973;50.518;7.318;2023-02-12T02:44:53;103111.72;;;6.18;100.00
3917;BME280;1973;50.518;7.318;2023-02-12T02:47:23;103104.28;;;6.20;100.00
3917;BME280;1973;50.518;7.318;2023-02-12T02:50:09;103100.66;;;6.20;100.00
3917;BME280;1973;50.518;7.318;2023-02-12T02:52:49;103093.34;;;6.20;100.00
3917;BME280;1973;50.518;7.318;2023-02-12T02:55:19;103102.25;;;6.22;100.00
3917;BME280;1973;50.518;7.318;2023-02-12T02:57:51;103102.25;;;6.22;100.00
3917;BME280;1973;50.518;7.318;2023-02-12T03:00:30;103100.28;;;6.24;100.00
3917;BME280;1973;50.518;7.318;2023-02-12T03:03:02;103096.78;;;6.22;100.00
3917;BME280;1973;50.518;7.318;2023-02-12T03:05:42;103098.81;;;6.20;100.00
3917;BME280;1973;50.518;7.318;2023-02-12T03:08:18;103100.66;;;6.20;100.00
3917;BME280;1973;50.518;7.318;2023-02-12T03:10:56;103094.16;;;6.21;100.00
3917;BME280;1973;50.518;7.318;2023-02-12T03:13:46;103095.31;;;6.18;100.00
3917;BME280;1973;50.518;7.318;2023-02-12T03:16:24;103092.47;;;6.20;100.00
3917;BME280;1973;50.518;7.318;2023-02-12T03:18:55;103098.81;;;6.20;100.00
3917;BME280;1973;50.518;7.318;2023-02-12T03:21:38;103085.84;;;6.22;100.00
3917;BME280;1973;50.518;7.318;2023-02-12T03:29:40;103094.16;;;6.21;100.00
3917;BME280;1973;50.518;7.318;2023-02-12T03:32:50;103096.06;;;6.20;100.00
3917;BME280;1973;50.518;7.318;2023-02-12T03:35:23;103083.13;;;6.22;100.00
3917;BME280;1973;50.518;7.318;2023-02-12T03:38:07;103095.91;;;6.22;100.00
3917;BME280;1973;50.518;7.318;2023-02-12T03:40:51;103096.78;;;6.22;100.00
3917;BME280;1973;50.518;7.318;2023-02-12T03:43:30;103091.31;;;6.22;100.00
3917;BME280;1973;50.518;7.318;2023-02-12T03:48:42;103103.84;;;6.25;100.00
3917;BME280;1973;50.518;7.318;2023-02-12T03:51:32;103095.91;;;6.22;100.00
3917;BME280;1973;50.518;7.318;2023-02-12T03:54:00;103096.66;;;6.24;100.00
3917;BME280;1973;50.518;7.318;2023-02-12T03:56:33;103098.25;;;6.26;100.00
3917;BME280;1973;50.518;7.318;2023-02-12T03:59:03;103089.19;;;6.26;100.00
3917;BME280;1973;50.518;7.318;2023-02-12T04:01:32;103087.31;;;6.26;100.00
3917;BME280;1973;50.518;7.318;2023-02-12T04:04:04;103089.06;;;6.27;100.00
3917;BME280;1973;50.518;7.318;2023-02-12T04:06:31;103089.94;;;6.28;100.00
3917;BME280;1973;50.518;7.318;2023-02-12T04:09:01;103085.19;;;6.30;100.00
3917;BME280;1973;50.518;7.318;2023-02-12T04:11:44;103095.16;;;6.31;100.00
3917;BME280;1973;50.518;7.318;2023-02-12T04:14:17;103094.13;;;6.32;100.00
3917;BME280;1973;50.518;7.318;2023-02-12T04:17:06;103088.81;;;6.30;100.00
3917;BME280;1973;50.518;7.318;2023-02-12T04:20:03;103093.28;;;6.31;100.00
3917;BME280;1973;50.518;7.318;2023-02-12T04:25:45;103107.19;;;6.28;100.00
3917;BME280;1973;50.518;7.318;2023-02-12T04:28:50;103108.34;;;6.26;100.00
3917;BME280;1973;50.518;7.318;2023-02-12T04:31:48;103112.06;;;6.25;100.00
3917;BME280;1973;50.518;7.318;2023-02-12T04:34:26;103110.34;;;6.24;100.00
3917;BME280;1973;50.518;7.318;2023-02-12T04:39:29;103112.22;;;6.23;100.00
3917;BME280;1973;50.518;7.318;2023-02-12T04:41:58;103120.41;;;6.23;100.00
3917;BME280;1973;50.518;7.318;2023-02-12T04:44:28;103120.41;;;6.23;100.00
3917;BME280;1973;50.518;7.318;2023-02-12T04:46:56;103125.88;;;6.23;100.00
3917;BME280;1973;50.518;7.318;2023-02-12T04:49:23;103130.22;;;6.26;100.00
3917;BME280;1973;50.518;7.318;2023-02-12T04:51:50;103132.84;;;6.27;100.00
3917;BME280;1973;50.518;7.318;2023-02-12T04:54:18;103125.34;;;6.29;100.00
3917;BME280;1973;50.518;7.318;2023-02-12T04:56:45;103119.63;;;6.32;100.00
3917;BME280;1973;50.518;7.318;2023-02-12T04:59:12;103122.13;;;6.35;100.00
3917;BME280;1973;50.518;7.318;2023-02-12T05:01:39;103116.66;;;6.35;100.00
3917;BME280;1973;50.518;7.318;2023-02-12T05:04:09;103116.50;;;6.37;100.00
3917;BME280;1973;50.518;7.318;2023-02-12T05:06:36;103116.50;;;6.37;100.00
3917;BME280;1973;50.518;7.318;2023-02-12T05:09:05;103115.34;;;6.40;100.00
3917;BME280;1973;50.518;7.318;2023-02-12T05:11:31;103116.22;;;6.40;100.00
3917;BME280;1973;50.518;7.318;2023-02-12T05:13:58;103115.13;;;6.43;100.00
3917;BME280;1973;50.518;7.318;2023-02-12T05:16:25;103116.81;;;6.44;100.00
3917;BME280;1973;50.518;7.318;2023-02-12T05:18:51;103107.63;;;6.45;100.00
3917;BME280;1973;50.518;7.318;2023-02-12T05:21:18;103114.84;;;6.46;100.00
3917;BME280;1973;50.518;7.318;2023-02-12T05:23:44;103116.59;;;6.47;100.00
3917;BME280;1973;50.518;7.318;2023-02-12T05:26:14;103111.13;;;6.47;100.00
3917;BME280;1973;50.518;7.318;2023-02-12T05:28:41;103116.59;;;6.47;100.00
3917;BME280;1973;50.518;7.318;2023-02-12T05:31:12;103117.44;;;6.47;100.00
3917;BME280;1973;50.518;7.318;2023-02-12T05:33:41;103122.19;;;6.45;100.00
3917;BME280;1973;50.518;7.318;2023-02-12T05:36:11;103131.25;;;6.46;100.00
3917;BME280;1973;50.518;7.318;2023-02-12T05:38:39;103120.59;;;6.43;100.00
3917;BME280;1973;50.518;7.318;2023-02-12T05:41:08;103126.91;;;6.43;100.00
3917;BME280;1973;50.518;7.318;2023-02-12T05:43:35;103131.53;;;6.43;100.00
3917;BME280;1973;50.518;7.318;2023-02-12T05:46:03;103127.78;;;6.44;100.00
3917;BME280;1973;50.518;7.318;2023-02-12T05:48:30;103126.06;;;6.43;100.00
3917;BME280;1973;50.518;7.318;2023-02-12T05:51:01;103133.25;;;6.44;100.00
3917;BME280;1973;50.518;7.318;2023-02-12T05:53:28;103137.84;;;6.43;100.00
3917;BME280;1973;50.518;7.318;2023-02-12T05:56:15;103135.09;;;6.43;100.00
3917;BME280;1973;50.518;7.318;2023-02-12T05:58:44;103136.13;;;6.42;100.00
3917;BME280;1973;50.518;7.318;2023-02-12T06:01:22;103138.00;;;6.42;100.00
3917;BME280;1973;50.518;7.318;2023-02-12T06:03:48;103140.72;;;6.42;100.00
3917;BME280;1973;50.518;7.318;2023-02-12T06:06:15;103147.19;;;6.41;100.00
3917;BME280;1973;50.518;7.318;2023-02-12T06:08:42;103147.94;;;6.43;100.00
3917;BME280;1973;50.518;7.318;2023-02-12T06:11:12;103148.78;;;6.43;100.00
3917;BME280;1973;50.518;7.318;2023-02-12T06:13:39;103152.41;;;6.44;100.00
3917;BME280;1973;50.518;7.318;2023-02-12T06:16:14;103148.78;;;6.43;100.00
3917;BME280;1973;50.518;7.318;2023-02-12T06:18:41;103144.19;;;6.44;100.00
3917;BME280;1973;50.518;7.318;2023-02-12T06:21:07;103153.41;;;6.43;100.00
3917;BME280;1973;50.518;7.318;2023-02-12T06:23:34;103154.25;;;6.43;100.00
3917;BME280;1973;50.518;7.318;2023-02-12T06:26:00;103146.94;;;6.44;100.00
3917;BME280;1973;50.518;7.318;2023-02-12T06:28:27;103153.41;;;6.43;100.00
3917;BME280;1973;50.518;7.318;2023-02-12T06:30:53;103156.16;;;6.43;100.00
3917;BME280;1973;50.518;7.318;2023-02-12T06:33:20;103158.91;;;6.43;100.00
3917;BME280;1973;50.518;7.318;2023-02-12T06:35:46;103163.50;;;6.42;100.00
3917;BME280;1973;50.518;7.318;2023-02-12T06:38:13;103173.56;;;6.42;100.00
3917;BME280;1973;50.518;7.318;2023-02-12T06:40:39;103160.75;;;6.42;100.00
3917;BME280;1973;50.518;7.318;2023-02-12T06:43:06;103157.16;;;6.42;100.00
3917;BME280;1973;50.518;7.318;2023-02-12T06:45:33;103162.63;;;6.42;100.00
3917;BME280;1973;50.518;7.318;2023-02-12T06:48:00;103165.34;;;6.42;100.00
3917;BME280;1973;50.518;7.318;2023-02-12T06:50:27;103166.09;;;6.44;100.00
3917;BME280;1973;50.518;7.318;2023-02-12T06:52:54;103166.97;;;6.44;100.00
3917;BME280;1973;50.518;7.318;2023-02-12T06:55:20;103173.19;;;6.46;100.00
3917;BME280;1973;50.518;7.318;2023-02-12T06:57:47;103167.72;;;6.46;100.00
3917;BME280;1973;50.518;7.318;2023-02-12T07:00:13;103164.09;;;6.46;100.00
3917;BME280;1973;50.518;7.318;2023-02-12T07:02:40;103163.09;;;6.47;100.00
3917;BME280;1973;50.518;7.318;2023-02-12T07:05:06;103169.31;;;6.49;100.00
3917;BME280;1973;50.518;7.318;2023-02-12T07:07:33;103177.41;;;6.50;100.00
3917;BME280;1973;50.518;7.318;2023-02-12T07:10:00;103172.75;;;6.51;100.00
3917;BME280;1973;50.518;7.318;2023-02-12T07:12:26;103181.72;;;6.53;100.00
3917;BME280;1973;50.518;7.318;2023-02-12T07:14:52;103178.72;;;6.56;100.00
3917;BME280;1973;50.518;7.318;2023-02-12T07:17:19;103175.72;;;6.59;100.00
3917;BME280;1973;50.518;7.318;2023-02-12T07:19:45;103177.47;;;6.60;100.00
3917;BME280;1973;50.518;7.318;2023-02-12T07:22:12;103184.41;;;6.64;100.00
3917;BME280;1973;50.518;7.318;2023-02-12T07:24:38;103186.16;;;6.65;100.00
3917;BME280;1973;50.518;7.318;2023-02-12T07:27:05;103184.16;;;6.67;100.00
3917;BME280;1973;50.518;7.318;2023-02-12T07:29:31;103182.13;;;6.69;100.00
3917;BME280;1973;50.518;7.318;2023-02-12T07:31:58;103184.63;;;6.72;100.00
3917;BME280;1973;50.518;7.318;2023-02-12T07:34:24;103186.13;;;6.76;100.00
3917;BME280;1973;50.518;7.318;2023-02-12T07:36:51;103187.72;;;6.78;100.00
3917;BME280;1973;50.518;7.318;2023-02-12T07:39:17;103186.28;;;6.84;100.00
3917;BME280;1973;50.518;7.318;2023-02-12T07:41:43;103179.72;;;6.87;100.00
3917;BME280;1973;50.518;7.318;2023-02-12T07:44:11;103176.53;;;6.91;100.00
3917;BME280;1973;50.518;7.318;2023-02-12T07:46:43;103170.84;;;6.94;100.00
3917;BME280;1973;50.518;7.318;2023-02-12T07:49:16;103177.78;;;6.98;100.00
3917;BME280;1973;50.518;7.318;2023-02-12T07:51:43;103181.97;;;7.02;100.00
3917;BME280;1973;50.518;7.318;2023-02-12T07:54:11;103179.56;;;7.09;100.00
3917;BME280;1973;50.518;7.318;2023-02-12T07:56:38;103177.56;;;7.11;100.00
3917;BME280;1973;50.518;7.318;2023-02-12T07:59:08;103176.41;;;7.13;100.00
3917;BME280;1973;50.518;7.318;2023-02-12T08:01:38;103182.50;;;7.17;100.00
3917;BME280;1973;50.518;7.318;2023-02-12T08:04:09;103181.38;;;7.19;100.00
3917;BME280;1973;50.518;7.318;2023-02-12T08:06:38;103190.03;;;7.24;100.00
3917;BME280;1973;50.518;7.318;2023-02-12T08:09:07;103184.31;;;7.27;100.00
3917;BME280;1973;50.518;7.318;2023-02-12T08:11:35;103187.66;;;7.31;100.00
3917;BME280;1973;50.518;7.318;2023-02-12T08:14:03;103186.50;;;7.33;100.00
3917;BME280;1973;50.518;7.318;2023-02-12T08:16:30;103186.22;;;7.37;100.00
3917;BME280;1973;50.518;7.318;2023-02-12T08:19:00;103188.56;;;7.41;100.00
3917;BME280;1973;50.518;7.318;2023-02-12T08:21:42;103191.91;;;7.45;100.00
3917;BME280;1973;50.518;7.318;2023-02-12T08:24:09;103195.94;;;7.50;100.00
3917;BME280;1973;50.518;7.318;2023-02-12T08:26:37;103194.56;;;7.56;100.00
3917;BME280;1973;50.518;7.318;2023-02-12T08:29:07;103192.28;;;7.61;100.00
3917;BME280;1973;50.518;7.318;2023-02-12T08:31:37;103193.75;;;7.65;100.00
3917;BME280;1973;50.518;7.318;2023-02-12T08:34:04;103200.66;;;7.69;100.00
3917;BME280;1973;50.518;7.318;2023-02-12T08:36:37;103198.06;;;7.67;100.00
3917;BME280;1973;50.518;7.318;2023-02-12T08:39:06;103200.41;;;7.72;100.00
3917;BME280;1973;50.518;7.318;2023-02-12T08:41:33;103200.41;;;7.72;100.00
3917;BME280;1973;50.518;7.318;2023-02-12T08:44:02;103201.88;;;7.76;100.00
3917;BME280;1973;50.518;7.318;2023-02-12T08:46:32;103196.09;;;7.79;100.00
3917;BME280;1973;50.518;7.318;2023-02-12T08:49:01;103195.53;;;7.85;100.00
3917;BME280;1973;50.518;7.318;2023-02-12T08:51:31;103196.72;;;7.92;100.00
3917;BME280;1973;50.518;7.318;2023-02-12T08:54:00;103200.63;;;7.99;100.00
3917;BME280;1973;50.518;7.318;2023-02-12T08:56:28;103197.34;;;8.05;100.00
3917;BME280;1973;50.518;7.318;2023-02-12T08:58:59;103211.38;;;8.12;100.00
3917;BME280;1973;50.518;7.318;2023-02-12T09:01:27;103198.06;;;8.17;100.00
3917;BME280;1973;50.518;7.318;2023-02-12T09:03:54;103203.16;;;8.21;100.00
3917;BME280;1973;50.518;7.318;2023-02-12T09:06:22;103202.28;;;8.21;100.00
3917;BME280;1973;50.518;7.318;2023-02-12T09:08:50;103201.28;;;8.22;100.00
3917;BME280;1973;50.518;7.318;2023-02-12T09:11:22;103204.34;;;8.28;100.00
3917;BME280;1973;50.518;7.318;2023-02-12T09:14:02;103207.84;;;8.30;100.00
3917;BME280;1973;50.518;7.318;2023-02-12T09:16:30;103203.22;;;8.31;100.00
3917;BME280;1973;50.518;7.318;2023-02-12T09:18:57;103206.97;;;8.30;100.00
3917;BME280;1973;50.518;7.318;2023-02-12T09:21:24;103205.81;;;8.32;100.00
3917;BME280;1973;50.518;7.318;2023-02-12T09:23:51;103200.03;;;8.36;100.00
3917;BME280;1973;50.518;7.318;2023-02-12T09:26:20;103206.25;;;8.38;100.00
3917;BME280;1973;50.518;7.318;2023-02-12T09:28:49;103205.25;;;8.39;100.00
3917;BME280;1973;50.518;7.318;2023-02-12T09:31:19;103200.94;;;8.46;100.00
3917;BME280;1973;50.518;7.318;2023-02-12T09:33:48;103202.38;;;8.50;100.00
3917;BME280;1973;50.518;7.318;2023-02-12T09:36:19;103203.09;;;8.52;100.00
3917;BME280;1973;50.518;7.318;2023-02-12T09:38:46;103204.69;;;8.54;100.00
3917;BME280;1973;50.518;7.318;2023-02-12T09:41:36;103203.69;;;8.55;100.00
3917;BME280;1973;50.518;7.318;2023-02-12T09:47:01;103205.00;;;8.61;100.00
3917;BME280;1973;50.518;7.318;2023-02-12T09:52:25;103207.88;;;8.69;100.00
3917;BME280;1973;50.518;7.318;2023-02-12T09:54:53;103209.47;;;8.71;100.00
3917;BME280;1973;50.518;7.318;2023-02-12T09:57:24;103207.16;;;8.76;100.00
3917;BME280;1973;50.518;7.318;2023-02-12T09:59:58;103198.63;;;8.79;100.00
3917;BME280;1973;50.518;7.318;2023-02-12T10:02:25;103203.69;;;8.84;100.00
3917;BME280;1973;50.518;7.318;2023-02-12T10:04:53;103203.13;;;8.90;100.00
3917;BME280;1973;50.518;7.318;2023-02-12T10:13:40;103217.56;;;8.92;100.00
3917;BME280;1973;50.518;7.318;2023-02-12T10:26:49;103205.69;;;9.11;100.00
3917;BME280;1973;50.518;7.318;2023-02-12T10:29:23;103205.66;;;9.20;100.00
3917;BME280;1973;50.518;7.318;2023-02-12T10:32:01;103203.34;;;9.25;100.00
3917;BME280;1973;50.518;7.318;2023-02-12T10:34:35;103211.72;;;9.34;100.00
3917;BME280;1973;50.518;7.318;2023-02-12T10:37:07;103204.63;;;9.41;100.00
3917;BME280;1973;50.518;7.318;2023-02-12T10:42:41;103207.00;;;9.63;100.00
3917;BME280;1973;50.518;7.318;2023-02-12T10:45:18;103206.09;;;9.72;100.00
3917;BME280;1973;50.518;7.318;2023-02-12T10:47:46;103204.50;;;9.79;100.00
3917;BME280;1973;50.518;7.318;2023-02-12T10:50:38;103193.75;;;9.86;100.00
3917;BME280;1973;50.518;7.318;2023-02-12T10:53:01;103198.88;;;9.98;100.00
3917;BME280;1973;50.518;7.318;2023-02-12T10:55:33;103199.31;;;10.03;100.00
3917;BME280;1973;50.518;7.318;2023-02-12T10:58:02;103201.44;;;10.09;100.00
3917;BME280;1973;50.518;7.318;2023-02-12T11:00:33;103199.22;;;10.13;100.00
3917;BME280;1973;50.518;7.318;2023-02-12T11:05:33;103193.28;;;10.27;100.00
3917;BME280;1973;50.518;7.318;2023-02-12T11:08:01;103188.00;;;10.34;100.00
3917;BME280;1973;50.518;7.318;2023-02-12T11:10:39;103177.13;;;10.32;100.00
3917;BME280;1973;50.518;7.318;2023-02-12T11:13:25;103181.38;;;10.27;100.00
3917;BME280;1973;50.518;7.318;2023-02-12T11:15:53;103179.97;;;10.22;100.00
3917;BME280;1973;50.518;7.318;2023-02-12T11:18:25;103181.84;;;10.22;100.00
3917;BME280;1973;50.518;7.318;2023-02-12T11:20:56;103173.34;;;10.15;100.00
3917;BME280;1973;50.518;7.318;2023-02-12T11:23:28;103178.66;;;10.17;100.00
3917;BME280;1973;50.518;7.318;2023-02-12T11:29:20;103157.75;;;10.24;100.00
3917;BME280;1973;50.518;7.318;2023-02-12T11:32:04;103160.47;;;10.34;100.00
3917;BME280;1973;50.518;7.318;2023-02-12T11:34:34;103150.22;;;10.44;100.00
3917;BME280;1973;50.518;7.318;2023-02-12T11:37:01;103152.75;;;10.55;100.00
3917;BME280;1973;50.518;7.318;2023-02-12T11:39:33;103138.75;;;10.66;100.00
3917;BME280;1973;50.518;7.318;2023-02-12T11:42:13;103145.00;;;10.76;100.00
3917;BME280;1973;50.518;7.318;2023-02-12T11:44:45;103146.84;;;10.85;100.00
3917;BME280;1973;50.518;7.318;2023-02-12T11:47:19;103137.59;;;10.94;100.00
3917;BME280;1973;50.518;7.318;2023-02-12T11:49:53;103135.63;;;11.04;100.00
3917;BME280;1973;50.518;7.318;2023-02-12T11:52:24;103124.63;;;11.12;100.00
3917;BME280;1973;50.518;7.318;2023-02-12T11:54:57;103128.31;;;11.21;100.00
3917;BME280;1973;50.518;7.318;2023-02-12T11:58:00;103127.66;;;11.27;100.00
3917;BME280;1973;50.518;7.318;2023-02-12T12:00:32;103115.97;;;11.33;100.00
3917;BME280;1973;50.518;7.318;2023-02-12T12:03:14;103110.66;;;11.40;100.00
3917;BME280;1973;50.518;7.318;2023-02-12T12:05:50;103113.81;;;11.45;100.00
3917;BME280;1973;50.518;7.318;2023-02-12T12:08:25;103106.59;;;11.52;100.00
3917;BME280;1973;50.518;7.318;2023-02-12T12:10:59;103099.72;;;11.56;100.00
3917;BME280;1973;50.518;7.318;2023-02-12T12:13:34;103097.31;;;11.53;100.00
3917;BME280;1973;50.518;7.318;2023-02-12T12:16:08;103096.25;;;11.54;100.00
3917;BME280;1973;50.518;7.318;2023-02-12T12:18:58;103091.78;;;11.61;100.00
3917;BME280;1973;50.518;7.318;2023-02-12T12:21:56;103088.78;;;11.72;100.00
3917;BME280;1973;50.518;7.318;2023-02-12T12:24:47;103089.81;;;11.79;100.00
3917;BME280;1973;50.518;7.318;2023-02-12T12:27:31;103090.69;;;11.80;100.00
3917;BME280;1973;50.518;7.318;2023-02-12T12:31:07;103090.88;;;11.86;100.00
3917;BME280;1973;50.518;7.318;2023-02-12T12:33:23;103083.66;;;11.85;100.00
3917;BME280;1973;50.518;7.318;2023-02-12T12:36:44;103085.56;;;11.85;100.00
3917;BME280;1973;50.518;7.318;2023-02-12T12:38:53;103083.78;;;11.76;100.00
3917;BME280;1973;50.518;7.318;2023-02-12T12:47:04;103081.09;;;11.58;100.00
3917;BME280;1973;50.518;7.318;2023-02-12T12:53:07;103082.31;;;11.55;100.00
3917;BME280;1973;50.518;7.318;2023-02-12T13:01:04;103076.59;;;11.49;100.00
3917;BME280;1973;50.518;7.318;2023-02-12T13:03:58;103066.38;;;11.49;100.00
3917;BME280;1973;50.518;7.318;2023-02-12T13:18:14;103049.25;;;11.30;100.00
3917;BME280;1973;50.518;7.318;2023-02-12T13:26:29;103041.81;;;11.22;100.00
3917;BME280;1973;50.518;7.318;2023-02-12T13:29:08;103038.88;;;11.23;100.00
3917;BME280;1973;50.518;7.318;2023-02-12T13:31:45;103036.81;;;11.26;100.00
3917;BME280;1973;50.518;7.318;2023-02-12T13:34:14;103039.09;;;11.30;100.00
3917;BME280;1973;50.518;7.318;2023-02-12T13:36:41;103039.63;;;11.34;100.00
3917;BME280;1973;50.518;7.318;2023-02-12T13:39:21;103034.09;;;11.34;100.00
3917;BME280;1973;50.518;7.318;2023-02-12T13:42:02;103030.28;;;11.35;100.00
3917;BME280;1973;50.518;7.318;2023-02-12T13:47:44;103024.47;;;11.38;100.00
3917;BME280;1973;50.518;7.318;2023-02-12T13:56:00;103028.25;;;11.37;100.00
3917;BME280;1973;50.518;7.318;2023-02-12T14:01:10;103021.69;;;11.30;100.00
3917;BME280;1973;50.518;7.318;2023-02-12T14:03:39;103017.53;;;11.26;100.00
3917;BME280;1973;50.518;7.318;2023-02-12T14:06:12;103012.81;;;11.18;100.00
3917;BME280;1973;50.518;7.318;2023-02-12T14:08:45;103011.22;;;11.07;100.00
3917;BME280;1973;50.518;7.318;2023-02-12T14:11:14;103011.91;;;11.09;100.00
3917;BME280;1973;50.518;7.318;2023-02-12T14:13:52;103009.50;;;11.06;100.00
3917;BME280;1973;50.518;7.318;2023-02-12T14:16:41;103013.06;;;10.99;100.00
3917;BME280;1973;50.518;7.318;2023-02-12T14:19:39;103007.34;;;10.92;100.00
3917;BME280;1973;50.518;7.318;2023-02-12T14:24:54;103006.81;;;10.89;100.00
3917;BME280;1973;50.518;7.318;2023-02-12T14:27:25;103010.38;;;10.81;100.00
3917;BME280;1973;50.518;7.318;2023-02-12T14:37:56;103012.41;;;10.79;100.00
3917;BME280;1973;50.518;7.318;2023-02-12T14:40:47;103021.34;;;10.73;100.00
3917;BME280;1973;50.518;7.318;2023-02-12T14:43:34;103010.66;;;10.70;100.00
3917;BME280;1973;50.518;7.318;2023-02-12T14:51:30;103018.06;;;10.69;100.00
3917;BME280;1973;50.518;7.318;2023-02-12T14:53:59;103021.13;;;10.66;100.00
3917;BME280;1973;50.518;7.318;2023-02-12T14:56:26;103017.53;;;10.66;100.00
3917;BME280;1973;50.518;7.318;2023-02-12T14:58:54;103019.06;;;10.68;100.00
3917;BME280;1973;50.518;7.318;2023-02-12T15:01:34;103024.44;;;10.70;100.00
3917;BME280;1973;50.518;7.318;2023-02-12T15:04:16;103021.69;;;10.70;100.00
3917;BME280;1973;50.518;7.318;2023-02-12T15:06:56;103013.63;;;10.77;100.00
3917;BME280;1973;50.518;7.318;2023-02-12T15:09:35;103013.47;;;10.78;100.00
3917;BME280;1973;50.518;7.318;2023-02-12T15:14:39;103016.91;;;10.80;100.00
3917;BME280;1973;50.518;7.318;2023-02-12T15:17:18;103012.59;;;10.78;100.00
3917;BME280;1973;50.518;7.318;2023-02-12T15:19:59;103004.88;;;10.81;100.00
3917;BME280;1973;50.518;7.318;2023-02-12T15:22:40;103007.28;;;10.84;100.00
3917;BME280;1973;50.518;7.318;2023-02-12T15:25:26;103011.78;;;10.85;100.00
3917;BME280;1973;50.518;7.318;2023-02-12T15:27:56;103005.41;;;10.85;100.00
3917;BME280;1973;50.518;7.318;2023-02-12T15:30:30;103004.53;;;10.84;100.00
3917;BME280;1973;50.518;7.318;2023-02-12T15:33:00;103000.78;;;10.85;100.00
3917;BME280;1973;50.518;7.318;2023-02-12T15:35:30;102998.00;;;10.85;100.00
3917;BME280;1973;50.518;7.318;2023-02-12T15:37:59;103009.72;;;10.87;100.00
3917;BME280;1973;50.518;7.318;2023-02-12T15:40:30;103010.59;;;10.88;100.00